METAR stanice u blizini

 

LYBE - Beograd / Surčin, Srbija
Ažurirano: 18/06/2019 20:30
Thunderstorm, Few clouds
Thunderstorm, Few clouds
 Pravac vetra JZ
Vetar: JZ 11 km/h
Temperatura: 23°C
Tačka rose: 18°C
Vlažnost: 74%
Pritisak: 1015 hPa
Pregled: Thunderstorm
Oblaci: Few Clouds
Vidljivost: 10 km
Cloud details: Few Clouds 1006 m
2019/06/18 18:30 LYBE 181830Z 22006KT 9999 TS FEW033CB 23/18 Q1015 NOSIG
LYBT - Beograd / Batajnica, Srbija
Ažurirano: 18/06/2019 20:30
Partly Cloudy
Partly Cloudy
 Pravac vetra varies
Vetar: varies 4 km/h
Temperatura: 22°C
Tačka rose: 19°C
Vlažnost: 83%
Pritisak: 1014 hPa
Oblaci: Partly Cloudy
Vidljivost: 10 km
Cloud details: Partly Cloudy 1219 m
2019/06/18 18:30 LYBT 181830Z VRB02KT 9999 SCT040TCU 22/19 Q1014 NOSIG
LYVR - Vršac, Srbija
Ažurirano: 18/06/2019 20:30
Few Clouds
Few Clouds
 Pravac vetra varies
Vetar: varies 2 km/h
Temperatura: 24°C
Tačka rose: 20°C
Vlažnost: 78%
Pritisak: 1014 hPa
Oblaci: Few Clouds
Vidljivost: 10 km
Cloud details: Few Clouds 1219 m
2019/06/18 18:30 LYVR 181830Z VRB01KT 9999 FEW040 24/20 Q1014 NOSIG
 
LYKV - Lađevci, Srbija
Ažurirano: 18/06/2019 20:30
Slaba kiša, Delimično oblačno
Slaba kiša, Delimično oblačno
 Pravac vetra varies
Vetar: varies 6 km/h
Temperatura: 18°C
Tačka rose: 18°C
Vlažnost: 100%
Pritisak: 1016 hPa
Pregled: Light Rain
Oblaci: Partly Cloudy
Vidljivost: 10 km
Cloud details: Few Clouds 457 m
Partly Cloudy 1219 m
2019/06/18 18:30 LYKV 181830Z VRB03KT 9999 -RA FEW015 SCT040 18/18 Q1016 NOSIG
LYNI - Niš, Srbija
Ažurirano: 18/06/2019 20:30
Vedro
Vedro
 Pravac vetra SZ
Vetar: SZ 4 km/h
Temperatura: 20°C
Tačka rose: 18°C
Vlažnost: 88%
Pritisak: 1015 hPa
Pregled: Vedro
Vidljivost: greater than 10 km
2019/06/18 18:30 LYNI 181830Z 31002KT CAVOK 20/18 Q1015 NOSIG
BKPR - Priština, Srbija
Ažurirano: 18/06/2019 21:00
Mostly Cloudy
Mostly Cloudy
 Pravac vetra varies
Vetar: varies 6 km/h
Temperatura: 20°C
Tačka rose: 13°C
Vlažnost: 64%
Pritisak: 1017 hPa
Oblaci: Mostly Cloudy
Vidljivost: 10 km
Cloud details: Few Clouds 1067 m
Partly Cloudy 1524 m
Mostly Cloudy 3658 m
2019/06/18 19:00 BKPR 181900Z VRB03KT 9999 FEW035CB SCT050 BKN120 20/13 Q1017 NOSIG
 
LHPP - Pecs / Pogany, Hungary
Ažurirano: 18/06/2019 19:15
NOT Current
Mostly Cloudy
Mostly Cloudy
 Pravac vetra I
Vetar: I 11 km/h
Temperatura: 24°C
Tačka rose: 20°C
Vlažnost: 78%
Pritisak: 1015 hPa
Oblaci: Mostly Cloudy
Vidljivost: 10 km
Cloud details: Mostly Cloudy 1006 m
2019/06/18 17:15 LHPP 181715Z 10006KT 9999 BKN033CB 24/20 Q1015 RESHRA
LHUD - Szeged, Hungary
Ažurirano: 18/06/2019 17:45
NOT Current
Partly Cloudy
Partly Cloudy
 Pravac vetra Z
Vetar: Z 9 km/h
Temperatura: 23°C
Tačka rose: 17°C
Vlažnost: 69%
Pritisak: 1015 hPa
Oblaci: Partly Cloudy
Vidljivost: 10 km
Cloud details: Partly Cloudy 1006 m
Partly Cloudy 2530 m
2019/06/18 15:45 LHUD 181545Z 27005KT 9999 SCT033CB SCT083 23/17 Q1015 RETS
LRTR - Timisoara, Romania
Ažurirano: 18/06/2019 20:30
Few Clouds
Few Clouds
 Pravac vetra SI
Vetar: SI 7 km/h
Temperatura: 23°C
Tačka rose: 21°C
Vlažnost: 89%
Pritisak: 1014 hPa
Oblaci: Few Clouds
Vidljivost: 10 km
Cloud details: Few Clouds 1524 m
2019/06/18 18:30 LRTR 181830Z 05004KT 9999 FEW050CB 23/21 Q1014 NOSIG
 
LRCV - Craiova, Romania
Ažurirano: 18/06/2019 20:30
Vedro
Vedro
 Pravac vetra SZ
Vetar: SZ 9 km/h
Temperatura: 19°C
Tačka rose: 17°C
Vlažnost: 88%
Pritisak: 1015 hPa
Oblaci: Vedro
Vidljivost: 10 km
2019/06/18 18:30 LRCV 181830Z AUTO 32005KT 9999 NCD 19/17 Q1015
LBSF - Sofia, Bulgaria
Ažurirano: 18/06/2019 20:30
Few Clouds
Few Clouds
 Pravac vetra ISI
Vetar: ISI 7 km/h
Temperatura: 22°C
Tačka rose: 17°C
Vlažnost: 73%
Pritisak: 1016 hPa
Oblaci: Few Clouds
Vidljivost: 10 km
Cloud details: Few Clouds 1219 m
2019/06/18 18:30 LBSF 181830Z 07004KT 9999 FEW040TCU 22/17 Q1016 NOSIG
LWSK - Skoplje, Makedonija
Ažurirano: 18/06/2019 20:30
Few Clouds
Few Clouds
 Pravac vetra calm
Vetar: Tišina
Temperatura: 22°C
Tačka rose: 15°C
Vlažnost: 65%
Pritisak: 1015 hPa
Oblaci: Few Clouds
Vidljivost: 10 km
Cloud details: Few Clouds 1524 m
2019/06/18 18:30 LWSK 181830Z 00000KT 9999 FEW050 22/15 Q1015 NOSIG
 
LYPG - Podgorica, Crna Gora
Ažurirano: 18/06/2019 20:30
Few Clouds
Few Clouds
 Pravac vetra SSZ
Vetar: SSZ 20 km/h
Temperatura: 26°C
Tačka rose: 13°C
Vlažnost: 45%
Pritisak: 1013 hPa
Oblaci: Few Clouds
Vidljivost: 10 km
Cloud details: Few Clouds 1524 m
2019/06/18 18:30 LYPG 181830Z 34011KT 9999 FEW050 26/13 Q1013 NOSIG
LQSA - Sarajevo, Bosna i Hercegovina
Ažurirano: 18/06/2019 20:30
Vedro
Vedro
 Pravac vetra JI
Vetar: JI 7 km/h
Temperatura: 20°C
Tačka rose: 16°C
Vlažnost: 78%
Pritisak: 1016 hPa
Pregled: Vedro
Vidljivost: greater than 10 km
2019/06/18 18:30 LQSA 181830Z 13004KT 090V160 CAVOK 20/16 Q1016 NOSIG
LDOS - Osijek, Hrvatksa
Ažurirano: 18/06/2019 20:30
Few Clouds
Few Clouds
 Pravac vetra JJI
Vetar: JJI 9 km/h
Temperatura: 24°C
Tačka rose: 20°C
Vlažnost: 78%
Pritisak: 1014 hPa
Oblaci: Few Clouds
Vidljivost: 10 km
Cloud details: Few Clouds 914 m
2019/06/18 18:30 LDOS 181830Z 15005KT 9999 FEW030TCU 24/20 Q1014